Time;durP1;ratioP1;P1;durP2;ratioP2;P2;SDS_P1;SDS_P2;PMS_P1;PMS_P2;Temp;Humidity;BMP_temperature;BMP_pressure;BME280_temperature;BME280_humidity;BME280_pressure;Samples;Min_cycle;Max_cycle;Signal;HPM_P1;HPM_P2
2021/12/08 00:00:12;;;;;;;2.20;1.83;;;3.10;99.90;;;;;;476160;250;27540;-75
2021/12/08 00:02:15;;;;;;;3.35;1.90;;;3.20;99.90;;;;;;476142;250;27622;-74
2021/12/08 00:04:15;;;;;;;2.47;1.90;;;3.10;99.90;;;;;;476106;250;27997;-74
2021/12/08 00:06:16;;;;;;;2.33;2.22;;;3.10;99.90;;;;;;476195;250;28023;-74
2021/12/08 00:08:17;;;;;;;2.08;1.95;;;3.10;99.90;;;;;;476086;250;29136;-74
2021/12/08 00:13:00;;;;;;;2.25;2.05;;;3.10;99.90;;;;;;476170;250;28033;-74
2021/12/08 00:14:39;;;;;;;4.12;2.40;;;3.10;99.90;;;;;;476115;250;29116;-74
2021/12/08 00:16:40;;;;;;;2.90;2.25;;;3.10;99.90;;;;;;476153;250;27556;-75
2021/12/08 00:18:47;;;;;;;2.65;2.40;;;3.10;99.90;;;;;;476153;250;27593;-75
2021/12/08 00:20:47;;;;;;;2.20;2.00;;;3.10;99.90;;;;;;476036;250;27600;-75
2021/12/08 00:22:47;;;;;;;2.60;1.85;;;3.10;99.90;;;;;;476152;250;27524;-75
2021/12/08 00:24:48;;;;;;;1.92;1.80;;;3.10;99.90;;;;;;476226;250;28033;-75
2021/12/08 00:26:50;;;;;;;2.08;1.95;;;3.00;99.90;;;;;;476191;250;27596;-75
2021/12/08 00:28:51;;;;;;;2.33;2.15;;;3.00;99.90;;;;;;476186;250;27647;-76
2021/12/08 00:30:52;;;;;;;1.65;1.55;;;3.00;99.90;;;;;;476157;250;27585;-75
2021/12/08 00:32:55;;;;;;;2.47;1.83;;;3.10;99.90;;;;;;476164;250;28077;-75
2021/12/08 00:34:55;;;;;;;1.92;1.80;;;3.10;99.90;;;;;;476106;250;28080;-74
2021/12/08 00:36:59;;;;;;;2.92;1.98;;;3.10;99.90;;;;;;476160;250;28032;-75
2021/12/08 00:38:57;;;;;;;4.45;2.17;;;3.10;99.90;;;;;;475995;250;29115;-75
2021/12/08 00:40:58;;;;;;;2.67;1.85;;;3.10;99.90;;;;;;476132;250;27540;-75
2021/12/08 00:43:00;;;;;;;2.50;2.15;;;3.00;99.90;;;;;;476128;250;27581;-75
2021/12/08 00:45:01;;;;;;;1.90;1.80;;;3.10;99.90;;;;;;476145;250;27537;-74
2021/12/08 00:47:02;;;;;;;2.97;2.00;;;3.00;99.90;;;;;;476173;250;27556;-74
2021/12/08 00:49:03;;;;;;;3.55;2.28;;;3.00;99.90;;;;;;476174;250;27530;-75
2021/12/08 00:51:05;;;;;;;1.98;1.87;;;3.00;99.90;;;;;;476146;250;27581;-75
2021/12/08 00:53:06;;;;;;;2.40;2.20;;;3.00;99.90;;;;;;476149;250;27619;-74
2021/12/08 00:55:07;;;;;;;2.85;1.92;;;3.00;99.90;;;;;;476174;250;27594;-74
2021/12/08 00:57:08;;;;;;;2.22;2.03;;;3.00;99.90;;;;;;476194;250;27545;-75
2021/12/08 00:59:10;;;;;;;2.60;2.17;;;3.00;99.90;;;;;;476171;250;27686;-74
2021/12/08 01:01:12;;;;;;;2.50;2.30;;;3.00;99.90;;;;;;476172;250;27926;-75
2021/12/08 01:03:13;;;;;;;2.30;2.10;;;3.00;99.90;;;;;;476126;250;28022;-75
2021/12/08 01:05:13;;;;;;;4.90;2.60;;;3.00;99.90;;;;;;476158;250;29858;-74
2021/12/08 01:07:15;;;;;;;2.20;2.10;;;3.00;99.90;;;;;;476191;250;27945;-75
2021/12/08 01:09:16;;;;;;;2.33;2.10;;;3.00;99.90;;;;;;476193;250;27611;-75
2021/12/08 01:11:17;;;;;;;2.53;2.33;;;3.10;99.90;;;;;;476174;250;27553;-75
2021/12/08 01:13:18;;;;;;;2.20;2.10;;;3.10;99.90;;;;;;476159;250;27538;-74
2021/12/08 01:15:20;;;;;;;3.08;2.05;;;3.00;99.90;;;;;;476188;250;27543;-75
2021/12/08 01:17:21;;;;;;;2.33;2.12;;;3.00;99.90;;;;;;476179;250;27557;-74
2021/12/08 01:19:22;;;;;;;2.75;2.25;;;3.10;99.90;;;;;;476175;250;27557;-75
2021/12/08 01:21:23;;;;;;;2.15;2.05;;;3.10;99.90;;;;;;476171;250;27504;-75
2021/12/08 01:23:25;;;;;;;2.58;2.12;;;3.10;99.90;;;;;;476201;250;27542;-75
2021/12/08 01:25:26;;;;;;;2.50;2.30;;;3.10;99.90;;;;;;476154;250;27488;-75
2021/12/08 01:27:29;;;;;;;2.05;1.90;;;3.10;99.90;;;;;;476179;250;27620;-75
2021/12/08 01:29:28;;;;;;;2.28;2.08;;;3.10;99.90;;;;;;476065;250;28081;-75
2021/12/08 01:31:30;;;;;;;2.20;2.10;;;3.10;99.90;;;;;;476193;250;27958;-75
2021/12/08 01:33:33;;;;;;;3.25;2.53;;;3.10;99.90;;;;;;476182;250;28009;-75
2021/12/08 01:35:32;;;;;;;3.72;2.25;;;3.10;99.90;;;;;;476115;250;27945;-74
2021/12/08 01:37:34;;;;;;;2.50;2.30;;;3.10;99.90;;;;;;476188;250;27678;-74
2021/12/08 01:39:35;;;;;;;2.80;2.40;;;3.20;99.90;;;;;;476214;250;27572;-75
2021/12/08 01:41:36;;;;;;;1.98;1.87;;;3.20;99.90;;;;;;476202;250;27493;-74
2021/12/08 01:45:56;;;;;;;2.92;2.62;;;3.30;99.90;;;;;;476183;250;27532;-74
2021/12/08 01:45:57;;;;;;;2.42;2.20;;;3.30;99.90;;;;;;475034;250;27942;-74
2021/12/08 01:47:58;;;;;;;4.07;2.37;;;3.30;99.90;;;;;;476141;250;27974;-74
2021/12/08 01:49:59;;;;;;;3.10;2.28;;;3.30;99.90;;;;;;476177;250;28103;-75
2021/12/08 01:52:00;;;;;;;2.10;2.00;;;3.30;99.90;;;;;;476188;250;27942;-75
2021/12/08 01:54:02;;;;;;;2.83;2.47;;;3.40;99.90;;;;;;476172;250;27679;-74
2021/12/08 01:56:03;;;;;;;2.60;2.40;;;3.40;99.90;;;;;;476174;250;27497;-75
2021/12/08 01:58:04;;;;;;;3.15;2.37;;;3.40;99.90;;;;;;476177;250;27548;-75
2021/12/08 02:00:05;;;;;;;3.05;2.78;;;3.40;99.90;;;;;;476190;250;27561;-75
2021/12/08 02:02:07;;;;;;;2.70;2.50;;;3.40;99.90;;;;;;476190;250;27576;-75
2021/12/08 02:04:08;;;;;;;2.70;2.45;;;3.50;99.90;;;;;;476147;250;27527;-74
2021/12/08 02:06:09;;;;;;;2.62;2.42;;;3.50;99.90;;;;;;476154;250;27632;-75
2021/12/08 02:08:11;;;;;;;2.40;2.30;;;3.50;99.90;;;;;;476180;250;27631;-75
2021/12/08 02:10:12;;;;;;;2.87;2.40;;;3.50;99.90;;;;;;476188;250;27791;-75
2021/12/08 02:12:13;;;;;;;3.00;2.80;;;3.50;99.90;;;;;;476172;250;27502;-75
2021/12/08 02:14:14;;;;;;;2.60;2.40;;;3.50;99.90;;;;;;476179;250;27607;-74
2021/12/08 02:16:15;;;;;;;2.90;2.70;;;3.60;99.90;;;;;;476174;250;28081;-75
2021/12/08 02:18:17;;;;;;;2.87;2.67;;;3.60;99.90;;;;;;476181;250;28028;-75
2021/12/08 02:20:18;;;;;;;3.08;2.78;;;3.60;99.90;;;;;;476163;250;29188;-75
2021/12/08 02:22:19;;;;;;;3.28;2.55;;;3.60;99.90;;;;;;476155;250;29126;-75
2021/12/08 02:24:20;;;;;;;2.70;2.60;;;3.60;99.90;;;;;;476165;250;27622;-74
2021/12/08 02:26:22;;;;;;;2.83;2.62;;;3.60;99.90;;;;;;476182;250;27504;-74
2021/12/08 02:28:23;;;;;;;4.55;3.10;;;3.60;99.90;;;;;;476173;250;27598;-75
2021/12/08 02:30:32;;;;;;;4.55;3.37;;;3.60;99.90;;;;;;476162;250;27534;-75
2021/12/08 02:48:42;;;;;;;2.87;2.50;;;3.80;99.90;;;;;;476180;250;27527;-74
2021/12/08 02:50:43;;;;;;;3.67;2.60;;;3.80;99.90;;;;;;476170;250;27651;-74
2021/12/08 02:52:45;;;;;;;3.17;2.87;;;3.80;99.90;;;;;;476172;250;27526;-74
2021/12/08 02:54:46;;;;;;;3.05;2.85;;;3.80;99.90;;;;;;476175;250;27496;-75
2021/12/08 02:56:47;;;;;;;3.95;2.80;;;3.90;99.90;;;;;;476173;250;27589;-74
2021/12/08 02:58:48;;;;;;;3.58;2.50;;;3.90;99.90;;;;;;476170;250;27553;-75
2021/12/08 03:00:50;;;;;;;3.10;2.80;;;3.90;99.90;;;;;;476166;250;27540;-74
2021/12/08 03:02:51;;;;;;;2.65;2.45;;;3.90;99.90;;;;;;476159;250;27498;-74
2021/12/08 03:04:52;;;;;;;4.50;2.80;;;3.90;99.90;;;;;;476180;250;27497;-75
2021/12/08 03:06:53;;;;;;;2.80;2.60;;;3.90;99.90;;;;;;476170;250;28030;-75
2021/12/08 03:08:55;;;;;;;3.33;3.00;;;4.00;99.90;;;;;;476192;250;27919;-74
2021/12/08 03:10:56;;;;;;;4.57;3.12;;;4.00;99.90;;;;;;476135;250;28034;-75
2021/12/08 03:12:57;;;;;;;3.75;3.08;;;4.00;99.90;;;;;;476147;250;28834;-75
2021/12/08 03:14:58;;;;;;;2.85;2.65;;;4.00;99.90;;;;;;476165;250;27533;-75
2021/12/08 03:17:00;;;;;;;3.17;2.50;;;4.00;99.90;;;;;;476151;250;27643;-75
2021/12/08 03:19:01;;;;;;;2.85;2.65;;;4.00;99.90;;;;;;476127;250;27590;-74
2021/12/08 03:21:02;;;;;;;3.87;2.78;;;4.00;99.90;;;;;;476033;250;27577;-75
2021/12/08 03:23:04;;;;;;;3.30;3.00;;;4.10;99.90;;;;;;476036;250;27489;-75
2021/12/08 03:25:07;;;;;;;3.35;3.00;;;4.00;99.90;;;;;;476121;250;27619;-75
2021/12/08 03:27:13;;;;;;;5.00;3.05;;;4.10;99.90;;;;;;476025;250;27541;-75
2021/12/08 03:29:21;;;;;;;2.80;2.60;;;4.10;99.90;;;;;;475943;250;27613;-75
2021/12/08 03:31:16;;;;;;;3.08;2.78;;;4.10;99.90;;;;;;475564;250;27920;-75
2021/12/08 03:33:13;;;;;;;2.72;2.53;;;4.10;99.90;;;;;;475861;250;28028;-74
2021/12/08 03:35:14;;;;;;;3.10;2.80;;;4.10;99.90;;;;;;476110;250;28853;-74
2021/12/08 03:37:15;;;;;;;2.80;2.60;;;4.10;99.90;;;;;;476169;250;27940;-74
2021/12/08 03:39:16;;;;;;;4.32;3.25;;;4.10;99.90;;;;;;476191;250;27576;-75
2021/12/08 03:41:18;;;;;;;3.28;2.70;;;4.10;99.90;;;;;;476170;250;27542;-75
2021/12/08 03:43:19;;;;;;;3.30;3.00;;;4.20;99.90;;;;;;476178;250;27539;-75
2021/12/08 03:45:20;;;;;;;3.40;3.10;;;4.10;99.90;;;;;;476160;250;27517;-75
2021/12/08 03:47:27;;;;;;;3.30;3.00;;;4.10;99.90;;;;;;476173;250;27494;-75
2021/12/08 03:49:23;;;;;;;4.30;3.00;;;4.20;99.90;;;;;;475884;250;27559;-75
2021/12/08 03:51:24;;;;;;;4.65;3.25;;;4.20;99.90;;;;;;476159;250;27536;-75
2021/12/08 03:53:25;;;;;;;2.97;2.67;;;4.20;99.90;;;;;;476161;250;27617;-75
2021/12/08 03:55:26;;;;;;;3.08;2.80;;;4.20;99.90;;;;;;476168;250;27483;-74
2021/12/08 03:57:28;;;;;;;3.00;2.80;;;4.20;99.90;;;;;;476167;250;27538;-74
2021/12/08 03:59:29;;;;;;;3.95;3.00;;;4.20;99.90;;;;;;476188;250;27988;-75
2021/12/08 04:01:30;;;;;;;4.05;3.42;;;4.20;99.90;;;;;;476195;250;27965;-75
2021/12/08 04:03:33;;;;;;;3.25;2.95;;;4.20;99.90;;;;;;476181;250;28041;-74
2021/12/08 04:05:58;;;;;;;4.10;3.00;;;4.20;99.90;;;;;;476102;250;27930;-74
2021/12/08 04:07:36;;;;;;;4.50;2.97;;;4.20;99.90;;;;;;475494;250;27528;-74
2021/12/08 04:09:41;;;;;;;5.05;3.40;;;4.20;99.90;;;;;;476083;250;27557;-75
2021/12/08 04:11:36;;;;;;;6.40;3.33;;;4.20;99.90;;;;;;475877;250;27581;-75
2021/12/08 04:13:38;;;;;;;7.70;3.60;;;4.30;99.90;;;;;;476152;250;27543;-75
2021/12/08 04:15:39;;;;;;;3.55;3.25;;;4.30;99.90;;;;;;476162;250;27541;-74
2021/12/08 04:17:40;;;;;;;3.95;3.58;;;4.20;99.90;;;;;;476149;250;27548;-75
2021/12/08 04:19:41;;;;;;;4.82;3.62;;;4.20;99.90;;;;;;476187;250;28007;-74
2021/12/08 04:21:43;;;;;;;3.60;3.30;;;4.20;99.90;;;;;;476152;250;27510;-74
2021/12/08 04:23:44;;;;;;;3.65;3.17;;;4.20;99.90;;;;;;476156;250;27648;-74
2021/12/08 04:25:45;;;;;;;3.70;3.40;;;4.20;99.90;;;;;;476152;250;27588;-74
2021/12/08 04:27:46;;;;;;;3.65;3.28;;;4.20;99.90;;;;;;476155;250;27985;-75
2021/12/08 04:29:48;;;;;;;3.40;3.10;;;4.20;99.90;;;;;;476153;250;28100;-75
2021/12/08 04:31:50;;;;;;;3.03;2.83;;;4.20;99.90;;;;;;476164;250;29127;-75
2021/12/08 04:33:53;;;;;;;3.30;3.00;;;4.30;99.90;;;;;;476120;250;28020;-75
2021/12/08 04:35:53;;;;;;;4.75;3.80;;;4.30;99.90;;;;;;476018;250;27484;-75
2021/12/08 04:37:53;;;;;;;3.03;2.80;;;4.30;99.90;;;;;;476091;250;27542;-75
2021/12/08 04:42:05;;;;;;;3.10;2.87;;;4.20;99.90;;;;;;476177;250;27625;-75
2021/12/08 04:44:10;;;;;;;2.92;2.72;;;4.20;99.90;;;;;;475768;250;27551;-75
2021/12/08 04:46:14;;;;;;;6.03;3.17;;;4.20;99.90;;;;;;475776;250;27593;-74
2021/12/08 04:53:05;;;;;;;2.92;2.67;;;4.20;99.90;;;;;;476138;250;27546;-75
2021/12/08 05:01:44;;;;;;;3.40;2.75;;;4.20;99.90;;;;;;476128;250;27982;-74
2021/12/08 05:03:50;;;;;;;2.50;2.30;;;4.20;99.90;;;;;;475261;250;27541;-74
2021/12/08 05:08:12;;;;;;;4.35;3.08;;;4.10;99.90;;;;;;475931;250;28014;-74
2021/12/08 05:10:03;;;;;;;4.25;2.60;;;4.10;99.90;;;;;;475429;250;29332;-74
2021/12/08 05:12:04;;;;;;;2.62;2.42;;;4.20;99.90;;;;;;476026;250;27960;-74
2021/12/08 05:14:05;;;;;;;4.90;2.67;;;4.20;99.90;;;;;;476163;250;27519;-74
2021/12/08 05:16:07;;;;;;;3.12;2.87;;;4.20;99.90;;;;;;476141;250;27494;-75
2021/12/08 05:18:08;;;;;;;4.12;2.70;;;4.20;99.90;;;;;;476145;250;27514;-74
2021/12/08 05:20:09;;;;;;;2.80;2.60;;;4.10;99.90;;;;;;476175;250;27521;-74
2021/12/08 05:22:10;;;;;;;2.95;2.75;;;4.20;99.90;;;;;;476194;250;27633;-74
2021/12/08 05:24:12;;;;;;;2.85;2.55;;;4.20;99.90;;;;;;476399;250;27532;-75
2021/12/08 05:26:13;;;;;;;3.10;2.90;;;4.20;99.90;;;;;;476424;249;27499;-74
2021/12/08 05:28:14;;;;;;;3.20;2.97;;;4.20;99.90;;;;;;476190;250;27502;-74
2021/12/08 05:30:17;;;;;;;3.92;2.75;;;4.20;99.90;;;;;;476496;250;27548;-76
2021/12/08 05:32:18;;;;;;;2.72;2.53;;;4.30;99.90;;;;;;476208;250;27584;-73
2021/12/08 05:34:19;;;;;;;3.20;2.90;;;4.30;99.90;;;;;;476136;250;27498;-73
2021/12/08 05:36:21;;;;;;;2.60;2.40;;;4.30;99.90;;;;;;475896;250;27916;-74
2021/12/08 05:38:22;;;;;;;3.45;2.70;;;4.20;99.90;;;;;;476191;250;27987;-75
2021/12/08 05:40:23;;;;;;;2.78;2.58;;;4.30;99.90;;;;;;476168;250;27980;-73
2021/12/08 05:42:24;;;;;;;2.53;2.42;;;4.30;99.90;;;;;;476166;250;28003;-73
2021/12/08 05:44:26;;;;;;;2.80;2.60;;;4.30;99.90;;;;;;476178;250;27592;-73
2021/12/08 05:46:27;;;;;;;2.60;2.40;;;4.30;99.90;;;;;;476227;250;27577;-74
2021/12/08 05:48:30;;;;;;;3.65;3.00;;;4.20;99.90;;;;;;476258;250;27560;-74
2021/12/08 05:50:29;;;;;;;4.43;2.90;;;4.30;99.90;;;;;;476140;250;27517;-74
2021/12/08 05:52:31;;;;;;;2.85;2.55;;;4.30;99.90;;;;;;476261;250;27534;-74
2021/12/08 05:54:32;;;;;;;2.90;2.70;;;4.40;99.90;;;;;;476222;250;27573;-73
2021/12/08 05:56:33;;;;;;;5.68;2.55;;;4.30;99.90;;;;;;476247;250;27514;-74
2021/12/08 05:58:34;;;;;;;2.83;2.62;;;4.40;99.90;;;;;;476215;250;27537;-73
2021/12/08 06:00:36;;;;;;;2.45;2.25;;;4.30;99.90;;;;;;476181;250;27505;-74
2021/12/08 06:02:37;;;;;;;2.85;2.42;;;4.30;99.90;;;;;;476171;250;27629;-73
2021/12/08 06:04:38;;;;;;;2.35;2.25;;;4.30;99.90;;;;;;476184;250;28843;-73
2021/12/08 06:06:39;;;;;;;2.62;2.42;;;4.40;99.90;;;;;;476175;250;27964;-74
2021/12/08 06:08:41;;;;;;;4.10;2.47;;;4.40;99.90;;;;;;476206;250;28154;-74
2021/12/08 06:10:42;;;;;;;2.40;2.20;;;4.40;99.90;;;;;;476149;250;27990;-74
2021/12/08 06:12:43;;;;;;;2.60;2.40;;;4.40;99.90;;;;;;476146;250;27531;-74
2021/12/08 06:14:44;;;;;;;3.87;2.70;;;4.40;99.90;;;;;;476167;250;27576;-74
2021/12/08 06:16:46;;;;;;;2.80;2.60;;;4.40;99.90;;;;;;476190;250;27488;-74
2021/12/08 06:18:48;;;;;;;3.53;2.65;;;4.50;99.90;;;;;;476187;250;27528;-74
2021/12/08 06:20:48;;;;;;;2.85;2.50;;;4.50;99.90;;;;;;476140;250;27595;-76
2021/12/08 06:22:49;;;;;;;3.55;2.83;;;4.50;99.90;;;;;;476172;250;27555;-76
2021/12/08 06:24:51;;;;;;;2.85;2.37;;;4.50;99.90;;;;;;476207;250;27694;-77
2021/12/08 06:26:52;;;;;;;2.20;2.00;;;4.50;99.90;;;;;;476178;250;27645;-73
2021/12/08 06:28:53;;;;;;;2.65;2.45;;;4.50;99.90;;;;;;476203;250;27535;-73
2021/12/08 06:30:54;;;;;;;2.60;2.40;;;4.50;99.90;;;;;;476170;250;27589;-74
2021/12/08 06:32:56;;;;;;;2.53;2.22;;;4.40;99.90;;;;;;476149;250;28029;-74
2021/12/08 06:34:57;;;;;;;2.92;2.60;;;4.40;99.90;;;;;;476189;250;28031;-73
2021/12/08 06:36:59;;;;;;;3.65;2.72;;;4.50;99.90;;;;;;476155;250;27988;-73
2021/12/08 06:38:59;;;;;;;2.85;2.65;;;4.50;99.90;;;;;;476216;250;28099;-73
2021/12/08 06:41:01;;;;;;;5.00;2.85;;;4.50;99.90;;;;;;476162;250;27643;-74
2021/12/08 06:43:02;;;;;;;3.33;2.58;;;4.50;99.90;;;;;;476140;250;27522;-74
2021/12/08 06:45:03;;;;;;;2.92;2.53;;;4.40;99.90;;;;;;476136;250;27581;-74
2021/12/08 06:47:04;;;;;;;2.67;2.47;;;4.40;99.90;;;;;;476142;250;27527;-73
2021/12/08 06:49:06;;;;;;;2.83;2.62;;;4.40;99.90;;;;;;476167;250;27545;-73
2021/12/08 06:51:07;;;;;;;2.90;2.70;;;4.40;99.90;;;;;;476166;250;27508;-76
2021/12/08 06:53:09;;;;;;;2.50;2.30;;;4.30;99.90;;;;;;476182;250;27552;-76
2021/12/08 06:55:09;;;;;;;2.85;2.65;;;4.30;99.90;;;;;;476214;250;27494;-75
2021/12/08 06:57:11;;;;;;;2.60;2.40;;;4.30;99.90;;;;;;476203;250;27543;-74
2021/12/08 06:59:12;;;;;;;3.33;2.60;;;4.30;99.90;;;;;;476184;250;27955;-73
2021/12/08 07:05:28;;;;;;;3.10;2.53;;;4.20;99.90;;;;;;476193;250;27525;-74
2021/12/08 07:07:25;;;;;;;2.28;2.17;;;4.30;99.90;;;;;;475976;250;27955;-74
2021/12/08 07:09:27;;;;;;;3.60;2.65;;;4.30;99.90;;;;;;476179;250;28002;-73
2021/12/08 07:11:28;;;;;;;2.67;2.47;;;4.30;99.90;;;;;;476166;250;27928;-73
2021/12/08 07:13:29;;;;;;;9.15;2.72;;;4.30;99.90;;;;;;476135;250;29166;-73
2021/12/08 07:15:30;;;;;;;2.65;2.35;;;4.30;99.90;;;;;;476152;250;27601;-73
2021/12/08 07:17:32;;;;;;;3.33;2.95;;;4.30;99.90;;;;;;476198;250;27494;-73
2021/12/08 07:19:43;;;;;;;3.00;2.70;;;4.30;99.90;;;;;;476179;250;27540;-74
2021/12/08 07:21:34;;;;;;;3.80;2.50;;;4.30;99.90;;;;;;475667;250;27514;-73
2021/12/08 07:23:38;;;;;;;3.92;2.35;;;4.20;99.90;;;;;;476189;250;27604;-74
2021/12/08 07:25:39;;;;;;;3.70;2.37;;;4.20;99.90;;;;;;476167;250;28146;-74
2021/12/08 07:27:41;;;;;;;3.05;2.37;;;4.20;99.90;;;;;;476165;250;28251;-74
2021/12/08 07:29:42;;;;;;;2.10;2.00;;;4.10;99.90;;;;;;476177;250;27591;-73
2021/12/08 07:31:43;;;;;;;2.28;2.17;;;4.10;99.90;;;;;;476182;250;27645;-73
2021/12/08 07:33:44;;;;;;;3.85;2.67;;;4.10;99.90;;;;;;476171;250;27564;-73
2021/12/08 07:35:46;;;;;;;2.70;2.47;;;4.10;99.90;;;;;;476128;250;27615;-73
2021/12/08 07:37:47;;;;;;;2.50;2.20;;;4.10;99.90;;;;;;476162;250;27483;-74
2021/12/08 07:39:48;;;;;;;3.15;2.55;;;4.10;99.90;;;;;;476127;250;27533;-74
2021/12/08 07:41:52;;;;;;;2.40;2.20;;;4.20;99.90;;;;;;476173;250;27647;-73
2021/12/08 07:43:51;;;;;;;5.05;2.20;;;4.20;99.90;;;;;;476037;250;27635;-73
2021/12/08 07:45:52;;;;;;;3.33;2.40;;;4.20;99.90;;;;;;476165;250;27552;-76
2021/12/08 07:47:53;;;;;;;3.95;3.05;;;4.20;99.90;;;;;;476158;250;27554;-76
2021/12/08 07:49:54;;;;;;;2.85;2.12;;;4.20;99.90;;;;;;476160;250;27979;-74
2021/12/08 07:51:56;;;;;;;4.37;2.60;;;4.20;99.90;;;;;;476178;250;28297;-74
2021/12/08 07:53:57;;;;;;;2.83;1.85;;;4.20;99.90;;;;;;476204;250;28137;-74
2021/12/08 07:56:02;;;;;;;3.37;2.42;;;4.20;99.90;;;;;;476172;250;28006;-73
2021/12/08 07:57:59;;;;;;;2.35;2.15;;;4.20;99.90;;;;;;475927;250;27509;-74
2021/12/08 08:00:01;;;;;;;4.12;2.00;;;4.20;99.90;;;;;;476131;250;27608;-74
2021/12/08 08:02:06;;;;;;;2.30;2.10;;;4.20;99.90;;;;;;476136;250;27533;-73
2021/12/08 08:04:03;;;;;;;6.03;2.67;;;4.20;99.90;;;;;;475927;250;27579;-74
2021/12/08 08:06:04;;;;;;;2.37;2.22;;;4.30;99.90;;;;;;476179;250;27624;-74
2021/12/08 08:08:06;;;;;;;6.00;2.50;;;4.30;99.90;;;;;;476177;250;27512;-74
2021/12/08 08:10:13;;;;;;;2.25;2.15;;;4.30;99.90;;;;;;476152;250;27603;-76
2021/12/08 08:12:08;;;;;;;3.50;2.35;;;4.40;99.90;;;;;;475881;250;27568;-73
2021/12/08 08:14:10;;;;;;;3.30;2.40;;;4.40;99.90;;;;;;476162;250;27520;-73
2021/12/08 08:16:11;;;;;;;3.95;2.17;;;4.40;99.90;;;;;;476139;250;27534;-73
2021/12/08 08:18:12;;;;;;;2.80;2.12;;;4.50;99.90;;;;;;476142;250;27953;-74
2021/12/08 08:20:13;;;;;;;2.40;2.20;;;4.50;99.90;;;;;;476135;250;28027;-74
2021/12/08 08:22:14;;;;;;;4.47;2.12;;;4.50;99.90;;;;;;476162;250;28119;-74
2021/12/08 08:24:16;;;;;;;2.30;2.20;;;4.50;99.90;;;;;;476171;250;29064;-74
2021/12/08 08:26:17;;;;;;;2.75;2.55;;;4.60;99.90;;;;;;476186;250;27571;-74
2021/12/08 08:28:18;;;;;;;2.20;2.00;;;4.60;99.90;;;;;;476181;250;27582;-73
2021/12/08 08:30:19;;;;;;;2.12;2.03;;;4.60;99.90;;;;;;476156;250;27509;-74
2021/12/08 08:32:24;;;;;;;3.05;2.60;;;4.60;99.90;;;;;;476204;250;27631;-74
2021/12/08 08:34:22;;;;;;;3.00;2.30;;;4.60;99.90;;;;;;476020;250;27593;-74
2021/12/08 08:36:23;;;;;;;3.28;2.45;;;4.60;99.90;;;;;;476194;250;27543;-77
2021/12/08 08:38:24;;;;;;;3.22;2.60;;;4.60;99.90;;;;;;476206;250;27528;-76
2021/12/08 08:40:26;;;;;;;3.30;2.30;;;4.70;99.90;;;;;;476195;250;27510;-73
2021/12/08 08:42:27;;;;;;;2.70;2.17;;;4.70;99.90;;;;;;476204;250;27554;-74
2021/12/08 08:44:28;;;;;;;2.70;2.50;;;4.70;99.90;;;;;;476190;250;28040;-74
2021/12/08 08:46:30;;;;;;;4.97;2.25;;;4.70;99.90;;;;;;476158;250;28050;-74
2021/12/08 08:48:31;;;;;;;2.55;1.95;;;4.70;99.90;;;;;;476186;250;28106;-74
2021/12/08 08:50:32;;;;;;;2.65;2.00;;;4.70;99.90;;;;;;476180;250;27646;-74
2021/12/08 08:52:33;;;;;;;2.45;1.83;;;4.70;99.90;;;;;;476172;250;27527;-73
2021/12/08 08:54:34;;;;;;;3.15;2.78;;;4.70;99.90;;;;;;476161;250;27485;-74
2021/12/08 08:56:36;;;;;;;2.55;2.20;;;4.80;99.90;;;;;;476151;250;27556;-74
2021/12/08 08:58:37;;;;;;;1.90;1.80;;;4.80;99.90;;;;;;476184;250;27648;-74
2021/12/08 09:00:38;;;;;;;3.87;2.03;;;4.80;99.90;;;;;;476180;250;27522;-74
2021/12/08 09:02:39;;;;;;;4.55;2.75;;;4.80;99.90;;;;;;476134;250;27663;-74
2021/12/08 09:04:41;;;;;;;4.03;2.50;;;4.80;99.90;;;;;;476142;250;27542;-74
2021/12/08 09:06:43;;;;;;;2.45;2.25;;;4.80;99.90;;;;;;476143;250;27543;-74
2021/12/08 09:08:43;;;;;;;3.05;2.50;;;4.80;99.90;;;;;;476079;250;28462;-74
2021/12/08 09:10:44;;;;;;;3.40;2.20;;;4.90;99.90;;;;;;476181;250;28050;-74
2021/12/08 09:12:46;;;;;;;2.22;2.03;;;4.80;99.90;;;;;;476165;250;28022;-74
2021/12/08 09:14:47;;;;;;;2.53;2.33;;;4.90;99.90;;;;;;476185;250;27964;-74
2021/12/08 09:16:48;;;;;;;4.30;2.53;;;4.90;99.90;;;;;;476187;250;27544;-74
2021/12/08 09:18:54;;;;;;;2.60;2.40;;;4.90;99.90;;;;;;476183;250;27539;-73
2021/12/08 09:20:56;;;;;;;2.83;2.08;;;4.90;99.90;;;;;;475942;250;27524;-73
2021/12/08 09:22:56;;;;;;;3.55;2.70;;;5.00;99.90;;;;;;475914;250;27595;-74
2021/12/08 09:24:54;;;;;;;3.55;2.28;;;5.00;99.90;;;;;;475957;250;27596;-74
2021/12/08 09:26:54;;;;;;;3.78;2.37;;;5.00;99.90;;;;;;476158;250;27543;-74
2021/12/08 09:28:56;;;;;;;6.30;2.62;;;5.00;99.90;;;;;;476179;250;27517;-77
2021/12/08 09:30:59;;;;;;;2.55;2.35;;;5.00;99.90;;;;;;476185;250;27613;-74
2021/12/08 09:33:00;;;;;;;7.15;2.70;;;4.90;99.90;;;;;;476118;250;27604;-76
2021/12/08 09:34:59;;;;;;;3.62;2.40;;;4.90;99.90;;;;;;476108;250;27966;-75
2021/12/08 09:37:01;;;;;;;2.90;2.53;;;5.00;99.90;;;;;;476205;250;28195;-73
2021/12/08 09:39:02;;;;;;;5.45;2.67;;;5.00;99.90;;;;;;476207;250;28771;-73
2021/12/08 09:41:03;;;;;;;4.60;2.90;;;4.90;99.90;;;;;;476196;250;27490;-74
2021/12/08 09:43:04;;;;;;;4.30;2.42;;;4.90;99.90;;;;;;476184;250;27537;-74
2021/12/08 09:45:06;;;;;;;4.85;2.70;;;4.90;99.90;;;;;;476182;250;27596;-76
2021/12/08 09:47:07;;;;;;;2.55;2.35;;;4.90;99.90;;;;;;476180;250;27533;-76
2021/12/08 09:49:08;;;;;;;5.75;2.55;;;4.90;99.90;;;;;;476218;250;27893;-77
2021/12/08 09:51:09;;;;;;;5.10;2.85;;;5.00;99.90;;;;;;476202;250;27501;-76
2021/12/08 09:53:11;;;;;;;3.33;2.70;;;5.00;99.90;;;;;;476178;250;27555;-74
2021/12/08 09:55:13;;;;;;;4.22;2.70;;;5.00;99.90;;;;;;476193;250;27556;-73
2021/12/08 09:57:15;;;;;;;9.73;2.90;;;5.00;99.90;;;;;;476129;250;27536;-76
2021/12/08 09:59:14;;;;;;;2.25;2.05;;;5.00;99.90;;;;;;476135;250;28091;-76
2021/12/08 10:01:19;;;;;;;3.35;2.33;;;5.00;99.90;;;;;;476215;250;28025;-73
2021/12/08 10:03:17;;;;;;;2.55;2.00;;;5.00;99.90;;;;;;476004;250;28090;-73
2021/12/08 10:05:18;;;;;;;2.42;2.12;;;5.00;99.90;;;;;;476210;250;27506;-74
2021/12/08 10:07:19;;;;;;;2.60;2.40;;;5.00;99.90;;;;;;476227;250;27621;-77
2021/12/08 10:09:21;;;;;;;2.50;2.30;;;5.00;99.90;;;;;;476213;250;27583;-73
2021/12/08 10:11:22;;;;;;;5.20;3.62;;;5.10;99.90;;;;;;476228;250;27518;-74
2021/12/08 10:13:23;;;;;;;3.50;2.50;;;5.10;99.90;;;;;;476194;250;27631;-73
2021/12/08 10:15:24;;;;;;;4.05;2.10;;;5.10;99.90;;;;;;476172;250;27616;-74
2021/12/08 10:17:26;;;;;;;2.58;2.05;;;5.10;99.90;;;;;;476174;250;27551;-76
2021/12/08 10:19:27;;;;;;;2.47;2.00;;;5.10;99.90;;;;;;476214;250;27640;-75
2021/12/08 10:21:28;;;;;;;2.00;1.80;;;5.10;99.90;;;;;;476222;250;28008;-74
2021/12/08 10:23:30;;;;;;;2.35;2.20;;;5.10;99.90;;;;;;476161;250;28212;-74
2021/12/08 10:25:31;;;;;;;2.10;1.90;;;5.10;99.90;;;;;;476158;250;27980;-74
2021/12/08 10:27:34;;;;;;;2.25;2.05;;;5.10;99.90;;;;;;476197;250;27627;-76
2021/12/08 10:29:33;;;;;;;1.95;1.83;;;5.10;99.90;;;;;;476115;250;27639;-76
2021/12/08 10:31:34;;;;;;;3.42;2.25;;;5.10;99.90;;;;;;476224;250;27504;-76
2021/12/08 10:33:49;;;;;;;2.83;2.40;;;5.10;99.90;;;;;;476220;250;27526;-76
2021/12/08 10:35:49;;;;;;;2.42;1.92;;;5.10;99.90;;;;;;475968;250;27688;-73
2021/12/08 10:37:47;;;;;;;5.03;2.70;;;5.10;99.90;;;;;;476092;250;27548;-74
2021/12/08 10:39:49;;;;;;;2.60;2.40;;;5.10;99.90;;;;;;476203;250;27501;-74
2021/12/08 10:41:50;;;;;;;2.70;2.37;;;5.10;99.90;;;;;;476213;250;27515;-74
2021/12/08 10:43:51;;;;;;;3.35;2.70;;;5.10;99.90;;;;;;476175;250;28061;-77
2021/12/08 10:45:52;;;;;;;5.93;2.83;;;5.10;99.90;;;;;;476194;250;28006;-76
2021/12/08 10:47:56;;;;;;;2.50;2.30;;;5.10;99.90;;;;;;476207;250;27550;-76
2021/12/08 10:54:27;;;;;;;4.72;2.85;;;5.10;99.90;;;;;;476191;250;27630;-76
2021/12/08 10:56:26;;;;;;;6.62;2.80;;;5.00;99.90;;;;;;476049;250;27970;-74
2021/12/08 10:58:27;;;;;;;4.15;2.85;;;5.10;99.90;;;;;;476172;250;28157;-73
2021/12/08 11:00:29;;;;;;;3.15;2.60;;;5.10;99.90;;;;;;476159;250;27589;-74
2021/12/08 11:02:29;;;;;;;4.35;2.90;;;5.10;99.90;;;;;;476134;250;27505;-74
2021/12/08 11:04:31;;;;;;;2.97;2.58;;;5.10;99.90;;;;;;476145;250;27567;-73
2021/12/08 11:06:32;;;;;;;4.95;2.80;;;5.10;99.90;;;;;;476161;250;27502;-74
2021/12/08 11:08:33;;;;;;;3.10;2.50;;;5.20;99.90;;;;;;476194;250;27496;-74
2021/12/08 11:10:34;;;;;;;4.18;2.90;;;5.10;99.90;;;;;;476183;250;27542;-74
2021/12/08 11:12:36;;;;;;;6.25;3.00;;;5.10;99.90;;;;;;476170;250;27518;-74
2021/12/08 11:14:37;;;;;;;3.03;2.75;;;5.10;99.90;;;;;;476154;250;28100;-74
2021/12/08 11:16:38;;;;;;;3.95;2.55;;;5.10;99.90;;;;;;476175;250;28093;-74
2021/12/08 11:18:40;;;;;;;6.93;3.10;;;5.20;99.90;;;;;;476200;250;28061;-73
2021/12/08 11:20:41;;;;;;;3.70;3.33;;;5.20;99.90;;;;;;476186;250;27560;-73
2021/12/08 11:22:44;;;;;;;7.50;3.87;;;5.20;99.90;;;;;;476149;250;27585;-73